createdAt,value
2022-11-17T00:01:28.170Z,99661.06
2022-11-17T00:06:23.161Z,99689.16
2022-11-17T00:11:18.251Z,99820.59
2022-11-17T00:16:18.176Z,99821.88
2022-11-17T00:21:24.389Z,99710.94
2022-11-17T00:26:33.159Z,99872.19
2022-11-17T00:31:46.022Z,99856.16
2022-11-17T00:36:41.663Z,99669.19
2022-11-17T00:41:38.493Z,99742.66
2022-11-17T00:46:33.699Z,99720.00
2022-11-17T00:51:33.740Z,99653.97
2022-11-17T00:56:30.385Z,99775.47
2022-11-17T01:01:31.650Z,99701.09
2022-11-17T01:06:30.317Z,99773.44
2022-11-17T01:11:33.868Z,99747.72
2022-11-17T01:16:37.182Z,99633.34
2022-11-17T01:21:32.487Z,99621.41
2022-11-17T01:26:30.815Z,99602.94
2022-11-17T01:31:26.633Z,99675.50
2022-11-17T01:36:25.696Z,99616.88
2022-11-17T01:41:32.246Z,99595.16
2022-11-17T01:46:50.359Z,99686.81
2022-11-17T01:51:49.681Z,99721.31
2022-11-17T01:56:48.201Z,99642.19
2022-11-17T02:02:26.420Z,99546.59
2022-11-17T02:07:37.055Z,99569.00
2022-11-17T02:12:33.501Z,99757.38
2022-11-17T02:17:38.199Z,99751.22
2022-11-17T02:23:00.307Z,99601.22
2022-11-17T02:34:02.713Z,99687.97
2022-11-17T02:39:16.034Z,99552.22
2022-11-17T02:44:44.728Z,99641.03
2022-11-17T02:49:44.791Z,99682.53
2022-11-17T02:54:45.366Z,99701.25
2022-11-17T02:59:50.829Z,99660.44
2022-11-17T03:04:52.408Z,99524.59
2022-11-17T03:09:51.518Z,99643.25
2022-11-17T03:14:53.854Z,99688.44
2022-11-17T03:19:55.836Z,99508.72
2022-11-17T03:25:07.173Z,99696.53
2022-11-17T03:30:04.823Z,99559.53
2022-11-17T03:35:02.218Z,99576.00
2022-11-17T03:39:59.656Z,99661.66
2022-11-17T03:44:57.374Z,99467.09
2022-11-17T03:49:59.157Z,99607.28
2022-11-17T03:54:53.401Z,99604.09
2022-11-17T03:59:53.860Z,99455.78
2022-11-17T04:05:07.763Z,99540.16
2022-11-17T04:10:14.630Z,99577.03
2022-11-17T04:15:32.398Z,99563.81
2022-11-17T04:20:39.574Z,99448.56
2022-11-17T04:25:52.433Z,99463.38
2022-11-17T04:30:50.011Z,99652.41
2022-11-17T04:35:43.690Z,99491.28
2022-11-17T04:40:58.778Z,99647.50
2022-11-17T04:45:52.350Z,99463.22
2022-11-17T04:50:46.440Z,99397.41
2022-11-17T05:01:34.350Z,99395.50
2022-11-17T05:06:34.698Z,99393.78
2022-11-17T05:18:06.811Z,99594.09
2022-11-17T05:23:27.210Z,99532.59
2022-11-17T05:29:28.562Z,99416.84
2022-11-17T05:34:48.387Z,99515.88
2022-11-17T05:40:29.483Z,99329.63
2022-11-17T05:50:44.637Z,99329.00
2022-11-17T05:55:43.328Z,99515.63
2022-11-17T06:00:42.485Z,99575.44
2022-11-17T06:05:43.398Z,99560.44
2022-11-17T06:10:39.453Z,99555.00
2022-11-17T06:15:37.632Z,99439.88
2022-11-17T06:20:36.616Z,99592.56
2022-11-17T06:25:38.164Z,99588.72
2022-11-17T06:30:43.058Z,99540.66
2022-11-17T06:35:44.174Z,99575.31
2022-11-17T06:40:40.009Z,99338.44
2022-11-17T06:45:37.225Z,99380.34
2022-11-17T06:50:30.647Z,99471.84
2022-11-17T06:55:25.784Z,99383.59
2022-11-17T07:00:20.391Z,99525.63
2022-11-17T07:05:13.918Z,99538.59
2022-11-17T07:10:11.047Z,99474.97
2022-11-17T07:15:13.888Z,99587.25
2022-11-17T07:20:08.999Z,99519.66
2022-11-17T07:25:33.942Z,99347.66
2022-11-17T08:04:21.766Z,99540.88
2022-11-17T08:09:48.687Z,99483.78
2022-11-17T08:16:09.181Z,99421.91
2022-11-17T09:04:42.162Z,99632.25
2022-11-17T09:09:37.105Z,99626.38
2022-11-17T09:14:31.646Z,99617.53
2022-11-17T09:19:25.061Z,99550.59
2022-11-17T09:24:18.517Z,99539.63
2022-11-17T09:29:13.289Z,99611.53
2022-11-17T09:34:06.605Z,99609.59
2022-11-17T09:39:00.110Z,99586.66
2022-11-17T09:44:04.015Z,99496.28
2022-11-17T09:49:04.457Z,99588.41
2022-11-17T09:54:03.415Z,99585.31
2022-11-17T09:59:00.041Z,99556.09
2022-11-17T10:04:01.775Z,99557.59
2022-11-17T10:09:01.448Z,99586.34
2022-11-17T10:13:58.189Z,99500.97
2022-11-17T10:18:53.655Z,99481.50
2022-11-17T10:23:57.727Z,99517.16
2022-11-17T10:29:09.272Z,99582.78
2022-11-17T10:34:03.020Z,99588.84
2022-11-17T10:39:00.234Z,99575.75
2022-11-17T10:44:03.196Z,99472.41
2022-11-17T10:49:25.962Z,99407.16
2022-11-17T10:54:24.003Z,99548.69
2022-11-17T10:59:22.036Z,99444.81
2022-11-17T11:04:37.452Z,99506.25
2022-11-17T11:09:34.019Z,99618.59
2022-11-17T11:14:34.493Z,99543.56
2022-11-17T11:19:28.174Z,99546.28
2022-11-17T11:24:33.364Z,99609.28
2022-11-17T11:29:32.091Z,99572.72
2022-11-17T11:34:49.249Z,99427.38
2022-11-17T11:39:55.797Z,99648.88
2022-11-17T11:45:10.897Z,99625.47
2022-11-17T11:50:15.528Z,99624.56
2022-11-17T11:55:21.022Z,99591.75
2022-11-17T12:00:17.439Z,99661.91
2022-11-17T12:05:22.759Z,99666.63
2022-11-17T12:10:31.881Z,99569.34
2022-11-17T12:15:40.832Z,99471.72
2022-11-17T12:20:57.415Z,99666.59
2022-11-17T12:25:54.612Z,99628.19
2022-11-17T12:31:09.991Z,99657.84
2022-11-17T12:36:36.997Z,99637.16
2022-11-17T12:42:09.187Z,99659.03
2022-11-17T12:47:13.879Z,99662.16
2022-11-17T12:52:24.779Z,99615.88
2022-11-17T12:57:26.324Z,99560.75
2022-11-17T13:02:54.460Z,99655.31
2022-11-17T13:07:48.210Z,99667.59
2022-11-17T13:12:50.616Z,99564.63
2022-11-17T13:17:45.845Z,99619.97
2022-11-17T13:22:42.344Z,99660.31
2022-11-17T13:27:35.769Z,99653.19
2022-11-17T13:32:30.583Z,99576.09
2022-11-17T13:37:27.928Z,99678.63
2022-11-17T13:42:21.543Z,99668.06
2022-11-17T13:47:21.704Z,99581.41
2022-11-17T13:52:37.010Z,99692.66
2022-11-17T13:57:56.096Z,99644.34
2022-11-17T14:02:55.505Z,99713.31
2022-11-17T14:07:55.169Z,99708.34
2022-11-17T14:12:51.468Z,99712.50
2022-11-17T14:18:39.555Z,99698.25
2022-11-17T14:41:04.843Z,99693.00
2022-11-17T14:46:04.649Z,99733.84
2022-11-17T14:51:31.157Z,99635.31
2022-11-17T14:57:09.083Z,99653.91
2022-11-17T15:03:19.074Z,99757.50
2022-11-17T15:21:55.574Z,99776.63
2022-11-17T15:26:50.445Z,99786.19
2022-11-17T15:31:48.938Z,99605.28
2022-11-17T15:36:44.364Z,99806.50
2022-11-17T15:41:43.378Z,99749.38
2022-11-17T15:46:47.217Z,99686.91
2022-11-17T15:51:54.095Z,99588.63
2022-11-17T15:56:55.331Z,99661.09
2022-11-17T16:02:15.337Z,99701.63
2022-11-17T16:07:11.994Z,99642.84
2022-11-17T16:12:07.400Z,99644.63
2022-11-17T16:17:14.653Z,99739.28
2022-11-17T16:22:09.619Z,99688.44
2022-11-17T16:27:03.234Z,99655.91
2022-11-17T16:31:57.401Z,99692.31
2022-11-17T16:36:50.720Z,99747.81
2022-11-17T16:41:50.012Z,99720.63
2022-11-17T16:46:46.887Z,99693.00
2022-11-17T16:51:50.981Z,99806.38
2022-11-17T16:56:48.622Z,99852.47
2022-11-17T17:01:42.261Z,99700.34
2022-11-17T17:06:37.451Z,99812.94
2022-11-17T17:11:32.135Z,99822.41
2022-11-17T17:16:26.993Z,99743.84
2022-11-17T17:21:20.914Z,99873.41
2022-11-17T17:26:18.515Z,99698.63
2022-11-17T17:31:24.661Z,99655.31
2022-11-17T17:36:24.486Z,99834.66
2022-11-17T17:41:22.179Z,99740.63
2022-11-17T17:46:28.478Z,99827.03
2022-11-17T17:51:25.288Z,99826.34
2022-11-17T17:56:28.812Z,99851.91
2022-11-17T18:01:28.349Z,99828.75
2022-11-17T18:06:26.770Z,99850.34
2022-11-17T18:11:22.733Z,99882.63
2022-11-17T18:16:19.345Z,99784.03
2022-11-17T18:21:14.279Z,99961.38
2022-11-17T18:26:16.549Z,99936.16
2022-11-17T18:31:15.570Z,99859.13
2022-11-17T18:36:11.887Z,99837.25
2022-11-17T18:41:07.744Z,99980.25
2022-11-17T18:46:07.904Z,99986.94
2022-11-17T18:51:20.278Z,99993.38
2022-11-17T18:56:15.862Z,99893.19
2022-11-17T19:01:14.786Z,99881.25
2022-11-17T19:06:14.882Z,99910.19
2022-11-17T19:11:15.919Z,99893.34
2022-11-17T19:16:13.642Z,100003.75
2022-11-17T19:21:11.691Z,99903.44
2022-11-17T19:26:12.039Z,99817.00
2022-11-17T19:31:17.207Z,99810.66
2022-11-17T19:36:19.573Z,99982.94
2022-11-17T19:41:16.459Z,99996.28
2022-11-17T19:46:11.850Z,100006.13
2022-11-17T19:51:20.076Z,99935.53
2022-11-17T19:56:18.634Z,100039.81
2022-11-17T20:01:13.996Z,100012.38
2022-11-17T20:06:08.300Z,99966.59
2022-11-17T20:11:08.952Z,100036.94
2022-11-17T20:16:11.973Z,100050.81
2022-11-17T20:21:19.868Z,100046.59
2022-11-17T20:26:18.192Z,99980.38
2022-11-17T20:31:17.510Z,99916.81
2022-11-17T20:36:18.036Z,99997.16
2022-11-17T20:41:13.163Z,100037.72
2022-11-17T20:46:08.089Z,99828.75
2022-11-17T20:51:04.550Z,99952.13
2022-11-17T20:55:59.289Z,99918.19
2022-11-17T21:00:53.350Z,99964.66
2022-11-17T21:06:02.166Z,100022.03
2022-11-17T21:11:37.054Z,99851.13
2022-11-17T21:16:52.761Z,99868.97
2022-11-17T21:28:14.657Z,99921.69
2022-11-17T21:33:55.214Z,100047.97
2022-11-17T21:38:56.189Z,99870.66
2022-11-17T21:43:53.577Z,100029.59
2022-11-17T21:48:50.745Z,99969.88
2022-11-17T21:53:54.127Z,99827.34
2022-11-17T21:58:58.088Z,100000.72
2022-11-17T22:04:07.495Z,99875.41
2022-11-17T22:09:01.562Z,100097.91
2022-11-17T22:14:24.480Z,100030.81
2022-11-17T22:19:53.591Z,99847.09
2022-11-17T22:24:54.947Z,100032.59
2022-11-17T22:29:51.533Z,100070.34
2022-11-17T22:34:50.501Z,99848.34
2022-11-17T22:39:46.577Z,99828.09
2022-11-17T22:44:40.247Z,100076.69
2022-11-17T22:49:33.933Z,99972.25
2022-11-17T22:54:30.695Z,100048.41
2022-11-17T22:59:24.945Z,99940.91
2022-11-17T23:04:18.402Z,99877.88
2022-11-17T23:09:12.702Z,100020.13
2022-11-17T23:14:10.791Z,99954.88
2022-11-17T23:19:04.549Z,99916.56
2022-11-17T23:24:06.130Z,99921.03
2022-11-17T23:28:59.586Z,100031.38
2022-11-17T23:33:54.616Z,100041.78
2022-11-17T23:38:48.742Z,100037.19
2022-11-17T23:43:48.457Z,99963.75
2022-11-17T23:48:48.882Z,100093.03
2022-11-17T23:53:44.033Z,100062.66
2022-11-17T23:58:40.785Z,100101.56
